Seafrance Rodin — FOBQ — position and weather

sailwx.info

Track history (hours):
 
Tides and Currents Weather Stations Pressure Air Temp Water Temp Dewpoint Dewpoint Depression Visibility Wind Speed Wind Dir Waves Ship Positions

Seafrance Rodin

Operator: SeaFrance

Last reported at 2017-Feb-22 03:34 UTC. Time now 2017-Feb-22 04:23 UTC.
Position N 51°00' E 001°36'.

Length 185 m; draft 6 m.

MMSI: 227022800.

Date/timePositionNaut miles runAvg speedWind from/ knotsBaromVisibWave heightAir tempDewpointWater temp
2017-Feb-22 03:34N 51°00' E 001°36'1212.0
2017-Feb-22 02:33N 51°08' E 001°20'1312.7
2017-Feb-22 01:34N 51°01' E 001°38'9 9.1
2017-Feb-22 00:33N 50°58' E 001°51'1312.8
2017-Feb-21 23:34N 51°02' E 001°32'9 8.9
2017-Feb-21 22:33N 51°08' E 001°20'1111.1
2017-Feb-21 21:34N 51°03' E 001°36'1010.4
2017-Feb-21 20:33N 50°58' E 001°51'1414.4
2017-Feb-21 19:34N 51°03' E 001°30'7 7.3
2017-Feb-21 18:33N 51°08' E 001°20'1414.1
2017-Feb-21 17:34N 51°00' E 001°40'8 7.6
2017-Feb-21 16:33N 50°58' E 001°51'1211.6
2017-Feb-21 15:34N 51°01' E 001°33'1010.3
2017-Feb-21 14:33N 51°08' E 001°20'10 9.6
2017-Feb-21 13:33N 51°03' E 001°34'1211.9
2017-Feb-21 12:33N 50°58' E 001°51'7 6.7
2017-Feb-21 11:34N 50°59' E 001°40'1514.5
2017-Feb-21 10:30N 51°08' E 001°20'8 9.1
2017-Feb-21 09:34N 51°04' E 001°33'1313.0
2017-Feb-21 08:33N 50°58' E 001°51'8 8.5
2017-Feb-21 07:33N 50°59' E 001°38'1412.8
2017-Feb-21 06:29N 51°08' E 001°20'9 9.9
2017-Feb-21 05:34N 51°03' E 001°33'1212.3
2017-Feb-21 04:33N 50°58' E 001°51'1010.4
2017-Feb-21 03:34N 50°60' E 001°35'1212.0
2017-Feb-21 02:33N 51°08' E 001°20'1010.5
2017-Feb-21 01:33N 51°02' E 001°35'1111.1
2017-Feb-21 00:33N 50°58' E 001°51'1211.6
2017-Feb-20 23:34N 51°02' E 001°34'1010.1
2017-Feb-20 22:33N 51°08' E 001°20'1211.8
2017-Feb-20 21:33N 51°02' E 001°37'10 9.8
2017-Feb-20 20:33N 50°58' E 001°51'1111.5
2017-Feb-20 19:34N 51°01' E 001°33'11 9.3
2017-Feb-20 18:24N 51°08' E 001°20'1213.7
2017-Feb-20 17:34N 51°01' E 001°36'1010.3
2017-Feb-20 16:34N 50°58' E 001°51'1110.8
2017-Feb-20 15:34N 51°01' E 001°35'1111.2
2017-Feb-20 14:33N 51°08' E 001°20'1111.3
2017-Feb-20 13:34N 51°02' E 001°36'1010.3
2017-Feb-20 12:33N 50°58' E 001°51'1211.7
2017-Feb-20 11:34N 51°01' E 001°33'1010.4
2017-Feb-20 10:33N 51°08' E 001°20'1110.7
2017-Feb-20 09:34N 51°05' E 001°37'1111.2
2017-Feb-20 08:34N 50°58' E 001°51'1514.6
2017-Feb-20 07:34N 51°02' E 001°29'8 7.7
2017-Feb-20 06:33N 51°08' E 001°20'1010.1
2017-Feb-20 05:34N 51°03' E 001°34'1211.6
2017-Feb-20 04:34N 50°58' E 001°51'1111.2
2017-Feb-20 03:33N 51°00' E 001°34'1111.0
2017-Feb-20 02:33N 51°08' E 001°20'1010.4
2017-Feb-20 01:33N 51°03' E 001°35'1111.2
2017-Feb-20 00:33N 50°58' E 001°51'8 7.9
2017-Feb-19 23:33N 50°60' E 001°39'1414.1
2017-Feb-19 22:33N 51°08' E 001°20'8 8.4
2017-Feb-19 21:34N 51°04' E 001°32'1313.3
2017-Feb-19 20:33N 50°58' E 001°51'1111.3
2017-Feb-19 19:33N 50°59' E 001°33'1210.9
2017-Feb-19 18:30N 51°08' E 001°20'1212.2
2017-Feb-19 17:34N 51°02' E 001°36'1010.1
2017-Feb-19 16:33N 50°58' E 001°51'9 9.0
2017-Feb-19 15:34N 51°00' E 001°37'1312.9
2017-Feb-19 14:33N 51°08' E 001°20'1312.7
2017-Feb-19 13:34N 51°01' E 001°38'9 9.0
2017-Feb-19 12:33N 50°58' E 001°51'1010.4
2017-Feb-19 11:34N 50°59' E 001°35'1312.5
2017-Feb-19 10:33N 51°08' E 001°20'1010.5
2017-Feb-19 09:33N 51°02' E 001°35'1111.2
2017-Feb-19 08:33N 50°58' E 001°51'1110.7
2017-Feb-19 07:33N 50°59' E 001°34'1212.2
2017-Feb-19 06:33N 51°08' E 001°20'1111.3
2017-Feb-19 05:33N 51°02' E 001°36'1010.3
2017-Feb-19 04:33N 50°58' E 001°51'0 0.0
2017-Feb-19 03:34N 50°58' E 001°51'0 0.0
2017-Feb-19 02:34N 50°58' E 001°51'0 0.0
2017-Feb-19 01:34N 50°58' E 001°51'0 0.0
2017-Feb-19 00:34N 50°58' E 001°51'0 0.0
2017-Feb-18 23:34N 50°58' E 001°51'0 0.0
2017-Feb-18 22:34N 50°58' E 001°51'0 0.0
2017-Feb-18 21:34N 50°58' E 001°51'0 0.0
2017-Feb-18 20:34N 50°58' E 001°51'1818.4
2017-Feb-18 19:33N 51°06' E 001°25'3 3.3
2017-Feb-18 18:33N 51°07' E 001°20'1514.6
2017-Feb-18 17:33N 51°00' E 001°41'7 7.1
2017-Feb-18 16:33N 50°58' E 001°51'1212.4
2017-Feb-18 15:33N 51°01' E 001°32'10 9.6
2017-Feb-18 14:33N 51°08' E 001°20'1515.1
2017-Feb-18 13:34N 51°00' E 001°41'7 6.6
2017-Feb-18 12:33N 50°58' E 001°51'1313.5
2017-Feb-18 11:34N 51°02' E 001°31'9 7.3
2017-Feb-18 10:22N 51°07' E 001°20'1720.4
2017-Feb-18 09:33N 50°59' E 001°43'5 5.3
2017-Feb-18 08:33N 50°58' E 001°51'1514.6
2017-Feb-18 07:34N 51°03' E 001°30'7 7.1
2017-Feb-18 06:33N 51°08' E 001°20'1211.6
2017-Feb-18 05:33N 51°02' E 001°36'1010.2
2017-Feb-18 04:33N 50°58' E 001°51'1110.6
2017-Feb-18 03:33N 51°01' E 001°35'1111.2
2017-Feb-18 02:33N 51°08' E 001°20'1211.8
2017-Feb-18 01:34N 51°02' E 001°36'10 9.9
2017-Feb-18 00:33N 50°58' E 001°51'1010.1
2017-Feb-17 23:33N 51°00' E 001°36'1211.7
2017-Feb-17 22:32N 51°08' E 001°20'10 9.9
2017-Feb-17 21:33N 51°03' E 001°34'1211.9
2017-Feb-17 20:33N 50°58' E 001°51'1211.6
2017-Feb-17 19:34N 51°02' E 001°34'1010.2
2017-Feb-17 18:33N 51°08' E 001°20'9 8.8
2017-Feb-17 17:34N 51°03' E 001°33'1312.7
2017-Feb-17 16:33N 50°58' E 001°51'1211.9
2017-Feb-17 15:33N 51°01' E 001°33'1010.2
2017-Feb-17 14:33N 51°08' E 001°20'10 9.8
2017-Feb-17 13:33N 51°03' E 001°34'1211.8
2017-Feb-17 12:33N 50°58' E 001°51'1211.8
2017-Feb-17 11:34N 51°00' E 001°33'1110.6
2017-Feb-17 10:33N 51°08' E 001°20'1111.3
2017-Feb-17 09:34N 51°02' E 001°35'1110.6
2017-Feb-17 08:33N 50°58' E 001°51'1111.0
2017-Feb-17 07:33N 51°01' E 001°34'1111.0
2017-Feb-17 06:33N 51°08' E 001°20'1212.4
2017-Feb-17 05:34N 51°01' E 001°38'9 9.2
2017-Feb-17 04:33N 50°58' E 001°51'1111.3
2017-Feb-17 03:34N 51°00' E 001°34'1111.0
2017-Feb-17 02:33N 51°08' E 001°20'9 9.0
2017-Feb-17 01:34N 51°05' E 001°34'1312.7
2017-Feb-17 00:33N 50°58' E 001°51'9 9.4
2017-Feb-16 23:33N 51°00' E 001°37'1212.4
2017-Feb-16 22:33N 51°08' E 001°20'1110.7
2017-Feb-16 21:34N 51°04' E 001°36'1111.1
2017-Feb-16 20:34N 50°58' E 001°51'1010.4
2017-Feb-16 19:34N 51°00' E 001°35'1211.6
2017-Feb-16 18:33N 51°08' E 001°20'9 9.4
2017-Feb-16 17:34N 51°04' E 001°34'1212.3
2017-Feb-16 16:33N 50°58' E 001°51'9 9.4
2017-Feb-16 15:33N 50°59' E 001°36'1312.9
2017-Feb-16 14:32N 51°08' E 001°20'1010.4
2017-Feb-16 13:34N 51°03' E 001°35'1111.4
2017-Feb-16 12:33N 50°58' E 001°51'1211.7
2017-Feb-16 11:34N 51°00' E 001°33'1110.8
2017-Feb-16 10:33N 51°08' E 001°20'1212.3
2017-Feb-16 09:34N 51°02' E 001°38'9 9.4
2017-Feb-16 08:33N 50°58' E 001°51'9 9.1
2017-Feb-16 07:33N 50°60' E 001°37'1312.6
2017-Feb-16 06:32N 51°08' E 001°20'1010.8
2017-Feb-16 05:34N 51°03' E 001°35'1111.2
2017-Feb-16 04:34N 50°58' E 001°51'1111.0
2017-Feb-16 03:33N 51°01' E 001°34'1110.6
2017-Feb-16 02:31N 51°08' E 001°20'9 9.9
2017-Feb-16 01:33N 51°04' E 001°34'1212.2
2017-Feb-16 00:33N 50°58' E 001°51'1010.5
2017-Feb-15 23:34N 50°58' E 001°35'1312.4
2017-Feb-15 22:29N 51°08' E 001°20'8 8.2
2017-Feb-15 21:33N 51°05' E 001°32'1414.0
2017-Feb-15 20:33N 50°58' E 001°51'1211.9
2017-Feb-15 19:34N 51°01' E 001°33'10 8.1
2017-Feb-15 18:17N 51°08' E 001°20'1216.9
2017-Feb-15 17:34N 51°02' E 001°37'9 9.4
2017-Feb-15 16:33N 50°58' E 001°51'1111.3
2017-Feb-15 15:34N 51°00' E 001°34'1111.0
2017-Feb-15 14:33N 51°08' E 001°20'10 9.8
2017-Feb-15 13:33N 51°03' E 001°34'1211.8
2017-Feb-15 12:33N 50°58' E 001°51'1111.1
2017-Feb-15 11:34N 51°01' E 001°34'1110.8
2017-Feb-15 10:33N 51°08' E 001°20'1414.0
2017-Feb-15 09:34N 51°00' E 001°39'8 7.8
2017-Feb-15 08:33N 50°58' E 001°51'1413.7
2017-Feb-15 07:34N 51°03' E 001°31'8 8.3
2017-Feb-15 06:33N 51°08' E 001°20'1110.9
2017-Feb-15 05:33N 51°02' E 001°35'1110.9
2017-Feb-15 04:34N 50°58' E 001°51'10 9.6
2017-Feb-15 03:33N 51°01' E 001°37'1212.1
2017-Feb-15 02:33N 51°08' E 001°20'9 8.8
2017-Feb-15 01:33N 51°03' E 001°32'1313.0
2017-Feb-15 00:33N 50°58' E 001°51'9 9.5
2017-Feb-14 23:34N 51°01' E 001°37'1212.3
2017-Feb-14 22:33N 51°08' E 001°20'1010.0
2017-Feb-14 21:33N 51°03' E 001°34'1211.7
2017-Feb-14 20:33N 50°58' E 001°51'1313.0
2017-Feb-14 19:33N 51°02' E 001°31'9 9.0
2017-Feb-14 18:33N 51°08' E 001°20'1211.7
2017-Feb-14 17:33N 51°02' E 001°37'1010.0
2017-Feb-14 16:33N 50°58' E 001°51'9 9.4
2017-Feb-14 15:34N 50°60' E 001°37'1312.7
2017-Feb-14 14:33N 51°08' E 001°20'10 9.9
2017-Feb-14 13:33N 51°03' E 001°34'1211.7
2017-Feb-14 12:33N 50°58' E 001°51'1212.2
2017-Feb-14 11:34N 51°01' E 001°32'1010.0
2017-Feb-14 10:33N 51°08' E 001°20'1414.0
2017-Feb-14 09:34N 51°00' E 001°39'8 7.9
2017-Feb-14 08:33N 50°58' E 001°51'10 9.9
2017-Feb-14 07:34N 51°00' E 001°36'1212.2
2017-Feb-14 06:33N 51°08' E 001°20'1211.6
2017-Feb-14 05:34N 51°02' E 001°37'1010.1
2017-Feb-14 04:33N 50°58' E 001°51'1110.5
2017-Feb-14 03:33N 51°01' E 001°35'1111.3
2017-Feb-14 02:33N 51°08' E 001°20'1010.2
2017-Feb-14 01:34N 51°03' E 001°35'1211.5
2017-Feb-14 00:33N 50°58' E 001°51'10 9.8
2017-Feb-13 23:33N 51°00' E 001°36'1212.2
2017-Feb-13 22:33N 51°08' E 001°20'1110.6
2017-Feb-13 21:34N 51°02' E 001°35'1111.0
2017-Feb-13 20:33N 50°58' E 001°51'1110.9
2017-Feb-13 19:33N 51°01' E 001°34'1110.8
2017-Feb-13 18:33N 51°08' E 001°20'9 9.3
2017-Feb-13 17:34N 51°03' E 001°33'1212.3
2017-Feb-13 16:33N 50°58' E 001°51'1110.9
2017-Feb-13 15:34N 51°01' E 001°35'1111.0
2017-Feb-13 14:33N 51°08' E 001°20'1111.1
2017-Feb-13 13:34N 51°03' E 001°36'1110.6
2017-Feb-13 12:33N 50°58' E 001°51'10 9.8
2017-Feb-13 11:33N 50°59' E 001°36'1312.3
2017-Feb-13 10:32N 51°08' E 001°20'1010.5
2017-Feb-13 09:33N 51°03' E 001°35'1111.2
2017-Feb-13 08:33N 50°58' E 001°51'1010.2
2017-Feb-13 07:33N 51°00' E 001°35'1211.9
2017-Feb-13 06:33N 51°08' E 001°20'1111.4
2017-Feb-13 05:34N 51°02' E 001°36'1010.0
2017-Feb-13 04:33N 50°58' E 001°51'10 9.7
2017-Feb-13 03:33N 51°00' E 001°36'1212.4
2017-Feb-13 02:33N 51°08' E 001°20'1110.7
2017-Feb-13 01:34N 51°03' E 001°36'1110.9
2017-Feb-13 00:33N 50°58' E 001°51'0 0.0
2017-Feb-12 23:33N 50°58' E 001°51'6 6.4
2017-Feb-12 22:33N 50°59' E 001°41'1615.1
2017-Feb-12 21:30N 51°08' E 001°20'0 0.1
2017-Feb-12 20:33N 51°07' E 001°20'1616.3
2017-Feb-12 19:34N 50°59' E 001°43'6 5.6
2017-Feb-12 18:33N 50°58' E 001°51'1010.3
2017-Feb-12 17:33N 51°00' E 001°35'1211.9
2017-Feb-12 16:33N 51°08' E 001°20'6 5.5
2017-Feb-12 15:33N 51°05' E 001°28'1615.9
2017-Feb-12 14:34N 50°58' E 001°51'0 0.1
2017-Feb-12 13:33N 50°58' E 001°51'1515.3
2017-Feb-12 12:34N 51°03' E 001°28'6 6.4
2017-Feb-12 11:33N 51°08' E 001°20'1312.8
2017-Feb-12 10:33N 51°01' E 001°38'9 9.0
2017-Feb-12 09:33N 50°58' E 001°51'7 7.3
2017-Feb-12 08:33N 50°58' E 001°40'1515.2
2017-Feb-12 07:33N 51°08' E 001°20'0 0.2
2017-Feb-12 06:33N 51°07' E 001°20'1716.7
2017-Feb-12 05:34N 50°59' E 001°43'5 5.2
2017-Feb-12 04:33N 50°58' E 001°51'  
Track history (hours):
 
Tides and Currents Weather Stations Pressure Air Temp Water Temp Dewpoint Dewpoint Depression Visibility Wind Speed Wind Dir Waves Ship Positions

Seafrance Rodin

Operator: SeaFrance

Last reported at 2017-Feb-22 03:34 UTC. Time now 2017-Feb-22 04:23 UTC.
Position N 51°00' E 001°36'.

Length 185 m; draft 6 m.

MMSI: 227022800.

Date/timePositionNaut miles runAvg speedWind from/ knotsBaromVisibWave heightAir tempDewpointWater temp
2017-Feb-22 03:34N 51°00' E 001°36'1212.0
2017-Feb-22 02:33N 51°08' E 001°20'1312.7
2017-Feb-22 01:34N 51°01' E 001°38'9 9.1
2017-Feb-22 00:33N 50°58' E 001°51'1312.8
2017-Feb-21 23:34N 51°02' E 001°32'9 8.9
2017-Feb-21 22:33N 51°08' E 001°20'1111.1
2017-Feb-21 21:34N 51°03' E 001°36'1010.4
2017-Feb-21 20:33N 50°58' E 001°51'1414.4
2017-Feb-21 19:34N 51°03' E 001°30'7 7.3
2017-Feb-21 18:33N 51°08' E 001°20'1414.1
2017-Feb-21 17:34N 51°00' E 001°40'8 7.6
2017-Feb-21 16:33N 50°58' E 001°51'1211.6
2017-Feb-21 15:34N 51°01' E 001°33'1010.3
2017-Feb-21 14:33N 51°08' E 001°20'10 9.6
2017-Feb-21 13:33N 51°03' E 001°34'1211.9
2017-Feb-21 12:33N 50°58' E 001°51'7 6.7
2017-Feb-21 11:34N 50°59' E 001°40'1514.5
2017-Feb-21 10:30N 51°08' E 001°20'8 9.1
2017-Feb-21 09:34N 51°04' E 001°33'1313.0
2017-Feb-21 08:33N 50°58' E 001°51'8 8.5
2017-Feb-21 07:33N 50°59' E 001°38'1412.8
2017-Feb-21 06:29N 51°08' E 001°20'9 9.9
2017-Feb-21 05:34N 51°03' E 001°33'1212.3
2017-Feb-21 04:33N 50°58' E 001°51'1010.4
2017-Feb-21 03:34N 50°60' E 001°35'1212.0
2017-Feb-21 02:33N 51°08' E 001°20'1010.5
2017-Feb-21 01:33N 51°02' E 001°35'1111.1
2017-Feb-21 00:33N 50°58' E 001°51'1211.6
2017-Feb-20 23:34N 51°02' E 001°34'1010.1
2017-Feb-20 22:33N 51°08' E 001°20'1211.8
2017-Feb-20 21:33N 51°02' E 001°37'10 9.8
2017-Feb-20 20:33N 50°58' E 001°51'1111.5
2017-Feb-20 19:34N 51°01' E 001°33'11 9.3
2017-Feb-20 18:24N 51°08' E 001°20'1213.7
2017-Feb-20 17:34N 51°01' E 001°36'1010.3
2017-Feb-20 16:34N 50°58' E 001°51'1110.8
2017-Feb-20 15:34N 51°01' E 001°35'1111.2
2017-Feb-20 14:33N 51°08' E 001°20'1111.3
2017-Feb-20 13:34N 51°02' E 001°36'1010.3
2017-Feb-20 12:33N 50°58' E 001°51'1211.7
2017-Feb-20 11:34N 51°01' E 001°33'1010.4
2017-Feb-20 10:33N 51°08' E 001°20'1110.7
2017-Feb-20 09:34N 51°05' E 001°37'1111.2
2017-Feb-20 08:34N 50°58' E 001°51'1514.6
2017-Feb-20 07:34N 51°02' E 001°29'8 7.7
2017-Feb-20 06:33N 51°08' E 001°20'1010.1
2017-Feb-20 05:34N 51°03' E 001°34'1211.6
2017-Feb-20 04:34N 50°58' E 001°51'1111.2
2017-Feb-20 03:33N 51°00' E 001°34'1111.0
2017-Feb-20 02:33N 51°08' E 001°20'1010.4
2017-Feb-20 01:33N 51°03' E 001°35'1111.2
2017-Feb-20 00:33N 50°58' E 001°51'8 7.9
2017-Feb-19 23:33N 50°60' E 001°39'1414.1
2017-Feb-19 22:33N 51°08' E 001°20'8 8.4
2017-Feb-19 21:34N 51°04' E 001°32'1313.3
2017-Feb-19 20:33N 50°58' E 001°51'1111.3
2017-Feb-19 19:33N 50°59' E 001°33'1210.9
2017-Feb-19 18:30N 51°08' E 001°20'1212.2
2017-Feb-19 17:34N 51°02' E 001°36'1010.1
2017-Feb-19 16:33N 50°58' E 001°51'9 9.0
2017-Feb-19 15:34N 51°00' E 001°37'1312.9
2017-Feb-19 14:33N 51°08' E 001°20'1312.7
2017-Feb-19 13:34N 51°01' E 001°38'9 9.0
2017-Feb-19 12:33N 50°58' E 001°51'1010.4
2017-Feb-19 11:34N 50°59' E 001°35'1312.5
2017-Feb-19 10:33N 51°08' E 001°20'1010.5
2017-Feb-19 09:33N 51°02' E 001°35'1111.2
2017-Feb-19 08:33N 50°58' E 001°51'1110.7
2017-Feb-19 07:33N 50°59' E 001°34'1212.2
2017-Feb-19 06:33N 51°08' E 001°20'1111.3
2017-Feb-19 05:33N 51°02' E 001°36'1010.3
2017-Feb-19 04:33N 50°58' E 001°51'0 0.0
2017-Feb-19 03:34N 50°58' E 001°51'0 0.0
2017-Feb-19 02:34N 50°58' E 001°51'0 0.0
2017-Feb-19 01:34N 50°58' E 001°51'0 0.0
2017-Feb-19 00:34N 50°58' E 001°51'0 0.0
2017-Feb-18 23:34N 50°58' E 001°51'0 0.0
2017-Feb-18 22:34N 50°58' E 001°51'0 0.0
2017-Feb-18 21:34N 50°58' E 001°51'0 0.0
2017-Feb-18 20:34N 50°58' E 001°51'1818.4
2017-Feb-18 19:33N 51°06' E 001°25'3 3.3
2017-Feb-18 18:33N 51°07' E 001°20'1514.6
2017-Feb-18 17:33N 51°00' E 001°41'7 7.1
2017-Feb-18 16:33N 50°58' E 001°51'1212.4
2017-Feb-18 15:33N 51°01' E 001°32'10 9.6
2017-Feb-18 14:33N 51°08' E 001°20'1515.1
2017-Feb-18 13:34N 51°00' E 001°41'7 6.6
2017-Feb-18 12:33N 50°58' E 001°51'1313.5
2017-Feb-18 11:34N 51°02' E 001°31'9 7.3
2017-Feb-18 10:22N 51°07' E 001°20'1720.4
2017-Feb-18 09:33N 50°59' E 001°43'5 5.3
2017-Feb-18 08:33N 50°58' E 001°51'1514.6
2017-Feb-18 07:34N 51°03' E 001°30'7 7.1
2017-Feb-18 06:33N 51°08' E 001°20'1211.6
2017-Feb-18 05:33N 51°02' E 001°36'1010.2
2017-Feb-18 04:33N 50°58' E 001°51'1110.6
2017-Feb-18 03:33N 51°01' E 001°35'1111.2
2017-Feb-18 02:33N 51°08' E 001°20'1211.8
2017-Feb-18 01:34N 51°02' E 001°36'10 9.9
2017-Feb-18 00:33N 50°58' E 001°51'1010.1
2017-Feb-17 23:33N 51°00' E 001°36'1211.7
2017-Feb-17 22:32N 51°08' E 001°20'10 9.9
2017-Feb-17 21:33N 51°03' E 001°34'1211.9
2017-Feb-17 20:33N 50°58' E 001°51'1211.6
2017-Feb-17 19:34N 51°02' E 001°34'1010.2
2017-Feb-17 18:33N 51°08' E 001°20'9 8.8
2017-Feb-17 17:34N 51°03' E 001°33'1312.7
2017-Feb-17 16:33N 50°58' E 001°51'1211.9
2017-Feb-17 15:33N 51°01' E 001°33'1010.2
2017-Feb-17 14:33N 51°08' E 001°20'10 9.8
2017-Feb-17 13:33N 51°03' E 001°34'1211.8
2017-Feb-17 12:33N 50°58' E 001°51'1211.8
2017-Feb-17 11:34N 51°00' E 001°33'1110.6
2017-Feb-17 10:33N 51°08' E 001°20'1111.3
2017-Feb-17 09:34N 51°02' E 001°35'1110.6
2017-Feb-17 08:33N 50°58' E 001°51'1111.0
2017-Feb-17 07:33N 51°01' E 001°34'1111.0
2017-Feb-17 06:33N 51°08' E 001°20'1212.4
2017-Feb-17 05:34N 51°01' E 001°38'9 9.2
2017-Feb-17 04:33N 50°58' E 001°51'1111.3
2017-Feb-17 03:34N 51°00' E 001°34'1111.0
2017-Feb-17 02:33N 51°08' E 001°20'9 9.0
2017-Feb-17 01:34N 51°05' E 001°34'1312.7
2017-Feb-17 00:33N 50°58' E 001°51'9 9.4
2017-Feb-16 23:33N 51°00' E 001°37'1212.4
2017-Feb-16 22:33N 51°08' E 001°20'1110.7
2017-Feb-16 21:34N 51°04' E 001°36'1111.1
2017-Feb-16 20:34N 50°58' E 001°51'1010.4
2017-Feb-16 19:34N 51°00' E 001°35'1211.6
2017-Feb-16 18:33N 51°08' E 001°20'9 9.4
2017-Feb-16 17:34N 51°04' E 001°34'1212.3
2017-Feb-16 16:33N 50°58' E 001°51'9 9.4
2017-Feb-16 15:33N 50°59' E 001°36'1312.9
2017-Feb-16 14:32N 51°08' E 001°20'1010.4
2017-Feb-16 13:34N 51°03' E 001°35'1111.4
2017-Feb-16 12:33N 50°58' E 001°51'1211.7
2017-Feb-16 11:34N 51°00' E 001°33'1110.8
2017-Feb-16 10:33N 51°08' E 001°20'1212.3
2017-Feb-16 09:34N 51°02' E 001°38'9 9.4
2017-Feb-16 08:33N 50°58' E 001°51'9 9.1
2017-Feb-16 07:33N 50°60' E 001°37'1312.6
2017-Feb-16 06:32N 51°08' E 001°20'1010.8
2017-Feb-16 05:34N 51°03' E 001°35'1111.2
2017-Feb-16 04:34N 50°58' E 001°51'1111.0
2017-Feb-16 03:33N 51°01' E 001°34'1110.6
2017-Feb-16 02:31N 51°08' E 001°20'9 9.9
2017-Feb-16 01:33N 51°04' E 001°34'1212.2
2017-Feb-16 00:33N 50°58' E 001°51'1010.5
2017-Feb-15 23:34N 50°58' E 001°35'1312.4
2017-Feb-15 22:29N 51°08' E 001°20'8 8.2
2017-Feb-15 21:33N 51°05' E 001°32'1414.0
2017-Feb-15 20:33N 50°58' E 001°51'1211.9
2017-Feb-15 19:34N 51°01' E 001°33'10 8.1
2017-Feb-15 18:17N 51°08' E 001°20'1216.9
2017-Feb-15 17:34N 51°02' E 001°37'9 9.4
2017-Feb-15 16:33N 50°58' E 001°51'1111.3
2017-Feb-15 15:34N 51°00' E 001°34'1111.0
2017-Feb-15 14:33N 51°08' E 001°20'10 9.8
2017-Feb-15 13:33N 51°03' E 001°34'1211.8
2017-Feb-15 12:33N 50°58' E 001°51'1111.1
2017-Feb-15 11:34N 51°01' E 001°34'1110.8
2017-Feb-15 10:33N 51°08' E 001°20'1414.0
2017-Feb-15 09:34N 51°00' E 001°39'8 7.8
2017-Feb-15 08:33N 50°58' E 001°51'1413.7
2017-Feb-15 07:34N 51°03' E 001°31'8 8.3
2017-Feb-15 06:33N 51°08' E 001°20'1110.9
2017-Feb-15 05:33N 51°02' E 001°35'1110.9
2017-Feb-15 04:34N 50°58' E 001°51'10 9.6
2017-Feb-15 03:33N 51°01' E 001°37'1212.1
2017-Feb-15 02:33N 51°08' E 001°20'9 8.8
2017-Feb-15 01:33N 51°03' E 001°32'1313.0
2017-Feb-15 00:33N 50°58' E 001°51'9 9.5
2017-Feb-14 23:34N 51°01' E 001°37'1212.3
2017-Feb-14 22:33N 51°08' E 001°20'1010.0
2017-Feb-14 21:33N 51°03' E 001°34'1211.7
2017-Feb-14 20:33N 50°58' E 001°51'1313.0
2017-Feb-14 19:33N 51°02' E 001°31'9 9.0
2017-Feb-14 18:33N 51°08' E 001°20'1211.7
2017-Feb-14 17:33N 51°02' E 001°37'1010.0
2017-Feb-14 16:33N 50°58' E 001°51'9 9.4
2017-Feb-14 15:34N 50°60' E 001°37'1312.7
2017-Feb-14 14:33N 51°08' E 001°20'10 9.9
2017-Feb-14 13:33N 51°03' E 001°34'1211.7
2017-Feb-14 12:33N 50°58' E 001°51'1212.2
2017-Feb-14 11:34N 51°01' E 001°32'1010.0
2017-Feb-14 10:33N 51°08' E 001°20'1414.0
2017-Feb-14 09:34N 51°00' E 001°39'8 7.9
2017-Feb-14 08:33N 50°58' E 001°51'10 9.9
2017-Feb-14 07:34N 51°00' E 001°36'1212.2
2017-Feb-14 06:33N 51°08' E 001°20'1211.6
2017-Feb-14 05:34N 51°02' E 001°37'1010.1
2017-Feb-14 04:33N 50°58' E 001°51'1110.5
2017-Feb-14 03:33N 51°01' E 001°35'1111.3
2017-Feb-14 02:33N 51°08' E 001°20'1010.2
2017-Feb-14 01:34N 51°03' E 001°35'1211.5
2017-Feb-14 00:33N 50°58' E 001°51'10 9.8
2017-Feb-13 23:33N 51°00' E 001°36'1212.2
2017-Feb-13 22:33N 51°08' E 001°20'1110.6
2017-Feb-13 21:34N 51°02' E 001°35'1111.0
2017-Feb-13 20:33N 50°58' E 001°51'1110.9
2017-Feb-13 19:33N 51°01' E 001°34'1110.8
2017-Feb-13 18:33N 51°08' E 001°20'9 9.3
2017-Feb-13 17:34N 51°03' E 001°33'1212.3
2017-Feb-13 16:33N 50°58' E 001°51'1110.9
2017-Feb-13 15:34N 51°01' E 001°35'1111.0
2017-Feb-13 14:33N 51°08' E 001°20'1111.1
2017-Feb-13 13:34N 51°03' E 001°36'1110.6
2017-Feb-13 12:33N 50°58' E 001°51'10 9.8
2017-Feb-13 11:33N 50°59' E 001°36'1312.3
2017-Feb-13 10:32N 51°08' E 001°20'1010.5
2017-Feb-13 09:33N 51°03' E 001°35'1111.2
2017-Feb-13 08:33N 50°58' E 001°51'1010.2
2017-Feb-13 07:33N 51°00' E 001°35'1211.9
2017-Feb-13 06:33N 51°08' E 001°20'1111.4
2017-Feb-13 05:34N 51°02' E 001°36'1010.0
2017-Feb-13 04:33N 50°58' E 001°51'10 9.7
2017-Feb-13 03:33N 51°00' E 001°36'1212.4
2017-Feb-13 02:33N 51°08' E 001°20'1110.7
2017-Feb-13 01:34N 51°03' E 001°36'1110.9
2017-Feb-13 00:33N 50°58' E 001°51'0 0.0
2017-Feb-12 23:33N 50°58' E 001°51'6 6.4
2017-Feb-12 22:33N 50°59' E 001°41'1615.1
2017-Feb-12 21:30N 51°08' E 001°20'0 0.1
2017-Feb-12 20:33N 51°07' E 001°20'1616.3
2017-Feb-12 19:34N 50°59' E 001°43'6 5.6
2017-Feb-12 18:33N 50°58' E 001°51'1010.3
2017-Feb-12 17:33N 51°00' E 001°35'1211.9
2017-Feb-12 16:33N 51°08' E 001°20'6 5.5
2017-Feb-12 15:33N 51°05' E 001°28'1615.9
2017-Feb-12 14:34N 50°58' E 001°51'0 0.1
2017-Feb-12 13:33N 50°58' E 001°51'1515.3
2017-Feb-12 12:34N 51°03' E 001°28'6 6.4
2017-Feb-12 11:33N 51°08' E 001°20'1312.8
2017-Feb-12 10:33N 51°01' E 001°38'9 9.0
2017-Feb-12 09:33N 50°58' E 001°51'7 7.3
2017-Feb-12 08:33N 50°58' E 001°40'1515.2
2017-Feb-12 07:33N 51°08' E 001°20'0 0.2
2017-Feb-12 06:33N 51°07' E 001°20'1716.7
2017-Feb-12 05:34N 50°59' E 001°43'5 5.2
2017-Feb-12 04:33N 50°58' E 001°51'  

Dump ship's entire track history